createdAt,value
2022-12-28T00:01:51.842Z,101602.81
2022-12-28T00:07:13.749Z,101581.34
2022-12-28T00:12:35.582Z,101571.56
2022-12-28T00:17:58.290Z,101567.31
2022-12-28T00:23:20.030Z,101557.53
2022-12-28T00:28:41.843Z,101548.59
2022-12-28T00:34:04.671Z,101542.44
2022-12-28T00:39:26.426Z,101533.53
2022-12-28T00:44:48.286Z,101513.53
2022-12-28T00:50:10.874Z,101507.56
2022-12-28T00:55:36.276Z,101511.41
2022-12-28T01:00:58.043Z,101499.09
2022-12-28T01:06:21.169Z,101492.72
2022-12-28T01:11:42.881Z,101482.09
2022-12-28T01:17:04.634Z,101470.16
2022-12-28T01:22:27.442Z,101466.78
2022-12-28T01:27:49.362Z,101457.00
2022-12-28T01:33:11.687Z,101453.63
2022-12-28T01:38:33.450Z,101434.47
2022-12-28T01:43:55.243Z,101433.84
2022-12-28T01:49:21.985Z,101426.63
2022-12-28T01:54:51.521Z,101413.00
2022-12-28T02:00:15.706Z,101408.53
2022-12-28T02:05:44.139Z,101394.94
2022-12-28T02:11:07.508Z,101393.25
2022-12-28T02:16:29.363Z,101383.47
2022-12-28T02:22:18.550Z,101377.94
2022-12-28T02:27:58.313Z,101369.03
2022-12-28T02:33:29.440Z,101365.66
2022-12-28T02:38:51.115Z,101366.09
2022-12-28T02:44:13.071Z,101337.59
2022-12-28T02:49:53.715Z,101341.44
2022-12-28T02:55:33.981Z,101321.44
2022-12-28T03:00:58.950Z,101310.56
2022-12-28T03:06:42.357Z,101300.59
2022-12-28T03:12:19.760Z,101295.91
2022-12-28T03:18:01.783Z,101290.59
2022-12-28T03:23:43.587Z,101284.44
2022-12-28T03:29:27.103Z,101284.44
2022-12-28T03:34:49.286Z,101284.06
2022-12-28T03:40:26.689Z,101284.91
2022-12-28T03:45:57.717Z,101276.84
2022-12-28T03:51:24.105Z,101267.69
2022-12-28T03:56:51.307Z,101258.53
2022-12-28T04:02:13.190Z,101243.22
2022-12-28T04:07:35.340Z,101245.16
2022-12-28T04:12:57.277Z,101241.56
2022-12-28T04:18:19.007Z,101228.81
2022-12-28T04:23:41.314Z,101223.28
2022-12-28T04:29:03.316Z,101232.66
2022-12-28T04:34:25.045Z,101219.88
2022-12-28T04:39:55.123Z,101220.97
2022-12-28T04:45:22.193Z,101203.50
2022-12-28T04:50:44.228Z,101203.75
2022-12-28T04:56:10.253Z,101195.44
2022-12-28T05:01:32.204Z,101196.53
2022-12-28T05:06:54.077Z,101211.44
2022-12-28T05:12:15.768Z,101214.19
2022-12-28T05:17:37.604Z,101212.50
2022-12-28T05:22:59.324Z,101204.44
2022-12-28T05:28:21.107Z,101211.88
2022-12-28T05:33:43.359Z,101210.22
2022-12-28T05:39:05.737Z,101220.44
2022-12-28T05:44:27.801Z,101200.22
2022-12-28T05:49:49.799Z,101206.84
2022-12-28T05:55:11.736Z,101199.63
2022-12-28T06:00:33.493Z,101204.28
2022-12-28T06:05:55.301Z,101201.31
2022-12-28T06:11:20.089Z,101186.09
2022-12-28T06:16:42.282Z,101189.69
2022-12-28T06:22:04.076Z,101186.53
2022-12-28T06:27:28.842Z,101184.59
2022-12-28T06:32:50.555Z,101180.56
2022-12-28T06:38:12.290Z,101172.56
2022-12-28T06:43:35.850Z,101181.19
2022-12-28T06:48:57.795Z,101172.09
2022-12-28T06:54:19.501Z,101167.91
2022-12-28T06:59:41.209Z,101166.63
2022-12-28T07:05:02.958Z,101156.41
2022-12-28T07:10:24.685Z,101147.88
2022-12-28T07:15:46.404Z,101147.06
2022-12-28T07:21:12.752Z,101142.13
2022-12-28T07:26:36.696Z,101125.28
2022-12-28T07:31:58.446Z,101125.88
2022-12-28T07:37:20.163Z,101129.25
2022-12-28T07:42:41.889Z,101125.78
2022-12-28T07:48:03.834Z,101131.47
2022-12-28T07:53:25.552Z,101133.03
2022-12-28T07:58:52.073Z,101122.06
2022-12-28T08:04:14.334Z,101126.75
2022-12-28T08:09:36.053Z,101123.72
2022-12-28T08:15:01.264Z,101116.47
2022-12-28T08:20:23.273Z,101114.75
2022-12-28T08:25:45.012Z,101114.13
2022-12-28T08:31:16.582Z,101116.28
2022-12-28T08:36:38.388Z,101111.06
2022-12-28T08:42:00.217Z,101118.94
2022-12-28T08:47:21.928Z,101118.56
2022-12-28T08:52:43.668Z,101120.03
2022-12-28T08:58:05.637Z,101114.13
2022-12-28T09:03:27.411Z,101119.03
2022-12-28T09:09:05.037Z,101110.53
2022-12-28T09:14:27.502Z,101106.38
2022-12-28T09:19:49.264Z,101104.47
2022-12-28T09:25:11.035Z,101113.03
2022-12-28T09:30:32.722Z,101111.03
2022-12-28T09:35:58.957Z,101118.69
2022-12-28T09:41:29.771Z,101107.66
2022-12-28T09:47:17.506Z,101115.22
2022-12-28T09:52:49.496Z,101108.88
2022-12-28T09:58:15.636Z,101110.88
2022-12-28T10:03:42.830Z,101105.16
2022-12-28T10:09:11.634Z,101098.59
2022-12-28T10:14:36.287Z,101102.59
2022-12-28T10:19:59.437Z,101096.84
2022-12-28T10:25:26.891Z,101094.47
2022-12-28T10:31:06.918Z,101079.91
2022-12-28T10:36:35.043Z,101088.00
2022-12-28T10:42:00.980Z,101084.50
2022-12-28T10:47:49.533Z,101078.88
2022-12-28T10:53:20.084Z,101073.47
2022-12-28T10:58:46.945Z,101082.13
2022-12-28T11:04:19.076Z,101072.38
2022-12-28T11:09:41.106Z,101063.97
2022-12-28T11:15:02.817Z,101040.59
2022-12-28T11:20:36.435Z,101037.84
2022-12-28T11:25:58.940Z,101019.16
2022-12-28T11:31:30.545Z,101001.06
2022-12-28T11:36:52.477Z,100994.72
2022-12-28T11:42:39.385Z,100986.13
2022-12-28T11:48:45.405Z,100977.59
2022-12-28T11:54:37.553Z,100970.72
2022-12-28T12:00:48.148Z,100961.03
2022-12-28T12:06:09.909Z,100963.56
2022-12-28T12:11:33.495Z,100938.44
2022-12-28T12:17:05.728Z,100923.72
2022-12-28T12:23:07.626Z,100911.19
2022-12-28T12:28:33.528Z,100910.25
2022-12-28T12:34:00.492Z,100894.94
2022-12-28T12:40:00.817Z,100882.78
2022-12-28T12:45:53.716Z,100875.56
2022-12-28T12:51:30.491Z,100865.91
2022-12-28T12:56:58.642Z,100849.25
2022-12-28T13:02:23.477Z,100840.00
2022-12-28T13:07:45.895Z,100829.94
2022-12-28T13:13:07.690Z,100811.53
2022-12-28T13:18:46.060Z,100798.78
2022-12-28T13:24:31.271Z,100789.28
2022-12-28T13:29:54.649Z,100757.75
2022-12-28T13:35:19.142Z,100727.66
2022-12-28T13:40:49.166Z,100726.69
2022-12-28T13:46:15.609Z,100725.47
2022-12-28T13:51:40.292Z,100710.88
2022-12-28T13:57:28.245Z,100696.88
2022-12-28T14:02:43.997Z,100690.13
2022-12-28T14:08:06.855Z,100677.53
2022-12-28T14:13:33.953Z,100670.50
2022-12-28T14:18:55.869Z,100657.06
2022-12-28T14:24:18.556Z,100649.75
2022-12-28T14:29:40.337Z,100633.28
2022-12-28T14:35:02.518Z,100614.94
2022-12-28T14:40:36.536Z,100610.38
2022-12-28T14:46:13.834Z,100601.16
2022-12-28T14:51:38.571Z,100591.69
2022-12-28T14:57:35.137Z,100587.03
2022-12-28T15:02:58.454Z,100578.63
2022-12-28T15:08:23.071Z,100570.19
2022-12-28T15:13:45.132Z,100557.28
2022-12-28T15:19:06.998Z,100554.91
2022-12-28T15:24:33.862Z,100551.94
2022-12-28T15:30:06.262Z,100538.63
2022-12-28T15:35:29.103Z,100531.94
2022-12-28T15:40:55.004Z,100522.44
2022-12-28T15:46:16.795Z,100517.38
2022-12-28T15:51:40.654Z,100508.13
2022-12-28T15:57:02.412Z,100480.59
2022-12-28T16:02:24.518Z,100476.94
2022-12-28T16:07:46.826Z,100463.00
2022-12-28T16:13:08.511Z,100452.97
2022-12-28T16:18:30.226Z,100435.44
2022-12-28T16:23:52.597Z,100437.06
2022-12-28T16:29:14.514Z,100430.38
2022-12-28T16:34:36.239Z,100420.91
2022-12-28T16:39:57.972Z,100418.63
2022-12-28T16:45:19.699Z,100407.81
2022-12-28T16:50:42.481Z,100400.28
2022-12-28T16:56:05.871Z,100390.53
2022-12-28T17:01:27.760Z,100380.00
2022-12-28T17:06:51.231Z,100367.50
2022-12-28T17:12:12.980Z,100362.22
2022-12-28T17:17:35.116Z,100351.72
2022-12-28T17:22:56.842Z,100337.88
2022-12-28T17:28:18.571Z,100348.69
2022-12-28T17:33:43.928Z,100333.72
2022-12-28T17:39:05.721Z,100330.69
2022-12-28T17:44:27.587Z,100321.03
2022-12-28T17:49:49.286Z,100319.66
2022-12-28T17:55:11.717Z,100312.22
2022-12-28T18:00:33.538Z,100307.50
2022-12-28T18:05:55.277Z,100291.69
2022-12-28T18:11:17.275Z,100297.59
2022-12-28T18:16:39.713Z,100302.00
2022-12-28T18:22:01.517Z,100302.03
2022-12-28T18:27:23.230Z,100288.66
2022-12-28T18:32:45.165Z,100291.31
2022-12-28T18:38:07.151Z,100269.97
2022-12-28T18:43:29.055Z,100268.63
2022-12-28T18:48:50.833Z,100261.13
2022-12-28T18:54:12.700Z,100253.34
2022-12-28T18:59:34.470Z,100262.50
2022-12-28T19:04:56.234Z,100261.09
2022-12-28T19:10:17.975Z,100250.25
2022-12-28T19:15:39.719Z,100248.53
2022-12-28T19:21:27.102Z,100249.38
2022-12-28T19:26:48.908Z,100256.91
2022-12-28T19:32:10.663Z,100245.25
2022-12-28T19:37:32.362Z,100240.53
2022-12-28T19:42:54.105Z,100237.22
2022-12-28T19:48:16.161Z,100238.38
2022-12-28T19:53:38.084Z,100241.97
2022-12-28T19:59:06.159Z,100240.25
2022-12-28T20:04:28.446Z,100218.22
2022-12-28T20:09:53.415Z,100212.03
2022-12-28T20:15:15.193Z,100204.41
2022-12-28T20:21:16.836Z,100206.59
2022-12-28T20:26:20.075Z,100194.59
2022-12-28T20:31:42.279Z,100188.94
2022-12-28T20:37:04.143Z,100186.06
2022-12-28T20:42:44.356Z,100194.09
2022-12-28T20:48:06.168Z,100185.47
2022-12-28T20:53:28.431Z,100178.22
2022-12-28T20:58:50.271Z,100178.25
2022-12-28T21:04:12.075Z,100177.75
2022-12-28T21:09:33.841Z,100166.69
2022-12-28T21:14:55.572Z,100152.53
2022-12-28T21:20:17.372Z,100157.63
2022-12-28T21:25:39.253Z,100164.69
2022-12-28T21:31:03.742Z,100158.09
2022-12-28T21:36:25.889Z,100157.88
2022-12-28T21:41:50.772Z,100144.28
2022-12-28T21:47:12.594Z,100139.03
2022-12-28T21:52:36.280Z,100130.72
2022-12-28T21:57:59.743Z,100130.75
2022-12-28T22:03:40.063Z,100122.72
2022-12-28T22:09:20.168Z,100131.09
2022-12-28T22:14:41.913Z,100117.19
2022-12-28T22:20:03.867Z,100118.28
2022-12-28T22:25:27.058Z,100133.31
2022-12-28T22:30:48.806Z,100122.47
2022-12-28T22:36:16.126Z,100116.91
2022-12-28T22:41:39.065Z,100102.75
2022-12-28T22:47:00.866Z,100094.69
2022-12-28T22:52:22.608Z,100078.31
2022-12-28T22:57:44.557Z,100076.09
2022-12-28T23:03:06.973Z,100079.44
2022-12-28T23:08:28.713Z,100080.53
2022-12-28T23:13:50.402Z,100071.66
2022-12-28T23:19:31.276Z,100055.50
2022-12-28T23:25:11.311Z,100054.97
2022-12-28T23:30:33.500Z,100064.38
2022-12-28T23:35:55.957Z,100054.09
2022-12-28T23:41:36.376Z,100041.91
2022-12-28T23:46:59.567Z,100031.06
2022-12-28T23:52:25.742Z,100012.19
2022-12-28T23:57:47.974Z,100009.97
